Nearby METAR Reports

 

KCIC - Chico Municipal, California, USA
Distance from station: SSW 12mi, 20km
Updated: Sun, 19-Aug-2018 8:35pm PDT
Overcast
Overcast
 Wind from calm
Wind: Calm
Temperature: 88°F , 31°C
Dew Point: 48°F , 9°C
Humidity: 25%
Barometer: 29.79 inHg , 1008.8 hPa
Clouds: Overcast
Visibility: 10 miles , 16 km
Cloud details: Overcast 7500 ft
2018/08/20 03:35 KCIC 200335Z AUTO 00000KT 10SM OVC075 31/09 A2979 RMK AO1
KOVE - Oroville, California, USA
Distance from station: SSE 31mi, 50km
Updated: Sun, 19-Aug-2018 7:53pm PDT
Clear
Clear
 Wind from SE
Wind: SE 7 mph , 11 km/h
Temperature: 88°F , 31°C
Dew Point: 50°F , 10°C
Humidity: 27%
Barometer: 29.79 inHg , 1008.8 hPa
Clouds: Clear
Visibility: 10 miles , 16 km
2018/08/20 02:53 KOVE 200253Z AUTO 14006KT 10SM CLR 31/10 A2979 RMK AO2 SLP088 T03060100 55003 $
 
KRBL - Red Bluff, California, USA
Distance from station: WNW 31mi, 50km
Updated: Sun, 19-Aug-2018 7:54pm PDT
Clear
Clear
 Wind from SW
Wind: SW 3 mph , 6 km/h
Temperature: 84°F , 29°C
Dew Point: 48°F , 9°C
Humidity: 29%
Barometer: 29.78 inHg , 1008.5 hPa
Clouds: Clear
Visibility: 10 miles , 16 km
2018/08/20 02:54 KRBL 200254Z AUTO 22003KT 10SM CLR 29/09 A2978 RMK AO2 SLP081 T02940094 55001
KRDD - Redding, California, USA
Distance from station: NW 50mi, 80km
Updated: Sun, 19-Aug-2018 7:53pm PDT
Smoke, Clear
Smoke, Clear
 Wind from SSE
Wind: SSE 8 mph , 13 km/h
Temperature: 90°F , 32°C
Dew Point: 46°F , 8°C
Humidity: 22%
Barometer: 29.78 inHg , 1008.5 hPa
Summary: Smoke
Clouds: Clear
Visibility: 10 miles , 16 km
2018/08/20 02:53 KRDD 200253Z 16007KT 10SM FU CLR 32/08 A2978 RMK AO2 SLP078 T03170083 53002
 
KMYV - Marysville, California, USA
Distance from station: S 59mi, 95km
Updated: Sun, 19-Aug-2018 7:53pm PDT

 Wind from S
Wind: S 7 mph , 11 km/h
Temperature: 86°F , 30°C
Dew Point: 48°F , 9°C
Humidity: 27%
Barometer: 29.77 inHg , 1008.1 hPa
Visibility: 10 miles , 16 km
2018/08/20 02:53 KMYV 200253Z AUTO 17006KT 10SM 30/09 A2977 RMK AO2 SLP085 T03000094 55005 $
KBAB - Beale Afb/Marysv, California, USA
Distance from station: SSE 59mi, 96km
Updated: Sun, 19-Aug-2018 7:58pm PDT
Clear
Clear
 Wind from S
Wind: S 7 mph , 11 km/h
Temperature: 81°F , 27°C
Heat Index: 81°F , 27°C
Dew Point: 55°F , 13°C
Humidity: 42%
Barometer: 29.77 inHg , 1008.1 hPa
Clouds: Clear
Visibility: 10 miles , 16 km
2018/08/20 02:58 KBAB 200258Z AUTO 18006KT 10SM CLR 27/13 A2977 RMK AO2 DZB21E32 SLP083 P0000 60000 T02740130 55005 $
 
KGOO - Grass Valley, California, USA
Distance from station: SE 63mi, 102km
Updated: Fri, 17-Aug-2018 6:40pm PDT
NOT Current
Clear
Clear
 Wind from WSW
Wind: WSW 3 mph , 6 km/h
Temperature: 86°F , 30°C
Dew Point: 46°F , 8°C
Humidity: 25%
Barometer: 30.15 inHg , 1021 hPa
Clouds: Clear
Visibility: 10 miles , 16 km
2018/08/18 01:40 KGOO 180140Z AUTO 25003KT 10SM CLR 30/08 A3015 RMK AO1
KBLU - Emigrant Gap, California, USA
Distance from station: SE 71mi, 115km
Updated: Sun, 19-Aug-2018 7:52pm PDT
Clear
Clear
 Wind from SSW
Wind: SSW 5 mph , 7 km/h
Temperature: 73°F , 23°C
Dew Point: 34°F , 1°C
Humidity: 23%
Barometer: 30.16 inHg , 1021.3 hPa
Clouds: Clear
Visibility: 10 miles , 16 km
2018/08/20 02:52 KBLU 200252Z AUTO 21004KT 10SM CLR 23/01 A3016 RMK AO2 SLP107 T02280011 55002
 
KLHM - Lincoln, California, USA
Distance from station: SSE 74mi, 119km
Updated: Sun, 19-Aug-2018 8:35pm PDT
Clear
Clear
 Wind from S
Wind: S 5 mph , 7 km/h
Temperature: 79°F , 26°C
Dew Point: 36°F , 2°C
Humidity: 21%
Barometer: 29.78 inHg , 1008.5 hPa
Clouds: Clear
Visibility: 10 miles , 16 km
2018/08/20 03:35 KLHM 200335Z AUTO 18004KT 10SM CLR 26/02 A2978 RMK AO1
KAUN - Auburn Muni, California, USA
Distance from station: SSE 77mi, 123km
Updated: Sun, 19-Aug-2018 8:35pm PDT
Clear
Clear
 Wind from SSE
Wind: SSE 5 mph , 7 km/h
Temperature: 84°F , 29°C
Dew Point: 46°F , 8°C
Humidity: 27%
Barometer: 29.89 inHg , 1012.2 hPa
Clouds: Clear
Visibility: 10 miles , 16 km
2018/08/20 03:35 KAUN 200335Z AUTO 16004KT 10SM CLR 29/08 A2989 RMK AO1
 
KO54 - Weaverville, California, USA
Distance from station: NW 84mi, 135km
Updated: Sun, 19-Aug-2018 7:15pm PDT
NOT Current
Clear
Clear
 Wind from WSW
Wind: WSW 8 mph , 13 km/h
Temperature: 88°F , 31°C
Dew Point: 32°F , 0°C
Humidity: 13%
Barometer: 29.91 inHg , 1012.9 hPa
Clouds: Clear
Visibility: 10 miles , 16 km
2018/08/20 02:15 KO54 200215Z AUTO 25007KT 10SM CLR 31/00 A2991 RMK AO1
KSMF - Sacramento/Metro, California, USA
Distance from station: S 86mi, 139km
Updated: Sun, 19-Aug-2018 7:53pm PDT
Partly cloudy
Partly cloudy
 Wind from S
Wind: S 13 mph , 20 km/h
Temperature: 82°F , 28°C
Dew Point: 50°F , 10°C
Humidity: 32%
Barometer: 29.77 inHg , 1008.1 hPa
Clouds: Partly cloudy
Visibility: 9 miles , 14 km
Cloud details: Partly cloudy 25000 ft
2018/08/20 02:53 KSMF 200253Z 17011KT 9SM SCT250 28/10 A2977 RMK AO2 SLP080 T02780100 55006
 
KMCC - Mcclellan Afb, California, USA
Distance from station: SSE 90mi, 145km
Updated: Sun, 19-Aug-2018 8:30pm PDT
Few Clouds
Few Clouds
 Wind from S
Wind: S 10 mph , 17 km/h
Temperature: 84°F , 29°C
Dew Point: 41°F , 5°C
Humidity: 22%
Barometer: 29.80 inHg , 1009.1 hPa
Clouds: Few Clouds
Visibility: 10 miles , 16 km
Cloud details: Few Clouds 3700 ft
2018/08/20 03:30 KMCC 200330Z AUTO 18009KT 10SM FEW037 29/05 A2980 RMK AO2
KTRK - Truckee Tahoe, California, USA
Distance from station: ESE 96mi, 155km
Updated: Sun, 19-Aug-2018 8:35pm PDT
Clear
Clear
 Wind from SW
Wind: SW 7 mph , 11 km/h
Temperature: 64°F , 18°C
Dew Point: 30°F , -1°C
Humidity: 28%
Barometer: 30.19 inHg , 1022.4 hPa
Clouds: Clear
Visibility: 10 miles , 16 km
2018/08/20 03:35 KTRK 200335Z AUTO 22006KT 10SM CLR 18/M01 A3019 RMK AO2
 
KUKI - Ukiah, California, USA
Distance from station: SW 97mi, 156km
Updated: Sun, 19-Aug-2018 7:56pm PDT
Haze, Clear
Haze, Clear
 Wind from calm
Wind: Calm
Temperature: 84°F , 29°C
Dew Point: 43°F , 6°C
Humidity: 23%
Barometer: 29.83 inHg , 1010.2 hPa
Summary: Haze
Clouds: Clear
Visibility: 6 miles , 10 km
2018/08/20 02:56 KUKI 200256Z AUTO 00000KT 6SM HZ CLR 29/06 A2983 RMK AO2 SLP095 T02940056 53004
KEDU - Davis, California, USA
Distance from station: S 97mi, 157km
Updated: Sun, 19-Aug-2018 8:35pm PDT
Clear
Clear
 Wind from S
Wind: S 7 mph , 11 km/h
Temperature: 73°F , 23°C
Dew Point: 54°F , 12°C
Humidity: 50%
Barometer: 29.78 inHg , 1008.5 hPa
Clouds: Clear
Visibility: 10 miles , 16 km
2018/08/20 03:35 KEDU 200335Z AUTO 17006KT 10SM CLR 23/12 A2978 RMK AO1
 
KMHR - Mather Field, California, USA
Distance from station: SSE 100mi, 161km
Updated: Sun, 19-Aug-2018 7:45pm PDT
Clear
Clear
 Wind from SSW
Wind: SSW 10 mph , 17 km/h
Temperature: 82°F , 28°C
Dew Point: 41°F , 5°C
Humidity: 23%
Barometer: 29.79 inHg , 1008.8 hPa
Clouds: Clear
Visibility: 10 miles , 16 km
2018/08/20 02:45 KMHR 200245Z 20009KT 10SM SKC 28/05 A2979
KMHS - Mount Shasta, California, USA
Distance from station: NNW 100mi, 161km
Updated: Sun, 19-Aug-2018 7:56pm PDT
Haze, Partly cloudy
Haze, Partly cloudy
 Wind from varies
Wind: varies 7 mph , 11 km/h
Temperature: 79°F , 26°C
Dew Point: 36°F , 2°C
Humidity: 21%
Barometer: 30.00 inHg , 1015.9 hPa
Summary: Haze
Clouds: Partly cloudy
Visibility: 5 miles , 8 km
Cloud details: Partly cloudy 5000 ft
2018/08/20 02:56 KMHS 200256Z AUTO VRB06KT 5SM HZ SCT050 26/02 A3000 RMK AO2 SLP147 T02610022 53010
 
KRTS - Reno/Stead, Nevada, USA
Distance from station: E 100mi, 161km
Updated: Sun, 19-Aug-2018 8:35pm PDT
Clear
Clear
 Wind from W
Wind: W 10 mph , 17 km/h
Temperature: 77°F , 25°C
Dew Point: 30°F , -1°C
Humidity: 18%
Barometer: 30.08 inHg , 1018.6 hPa
Clouds: Clear
Visibility: 10 miles , 16 km
2018/08/20 03:35 KRTS 200335Z AUTO 27009KT 10SM CLR 25/M01 A3008 RMK AO2
KSAC - Sacramento, California, USA
Distance from station: S 100mi, 162km
Updated: Sun, 19-Aug-2018 7:53pm PDT
Clear
Clear
 Wind from SSW
Wind: SSW 7 mph , 11 km/h
Temperature: 81°F , 27°C
Dew Point: 52°F , 11°C
Humidity: 37%
Barometer: 29.79 inHg , 1008.8 hPa
Clouds: Clear
Visibility: 10 miles , 16 km
2018/08/20 02:53 KSAC 200253Z 20006KT 10SM CLR 27/11 A2979 RMK AO2 SLP087 T02720106 55005